sensor_id;sensor_type;location;lat;lon;timestamp;pressure;altitude;pressure_sealevel;temperature;humidity
26443;BME280;5563;52.296;6.806;2023-01-25T00:01:21;103727.38;;;-0.15;82.44
26443;BME280;5563;52.296;6.806;2023-01-25T00:03:55;103737.88;;;-0.15;82.60
26443;BME280;5563;52.296;6.806;2023-01-25T00:06:28;103731.72;;;-0.17;82.50
26443;BME280;5563;52.296;6.806;2023-01-25T00:09:02;103729.13;;;-0.15;82.63
26443;BME280;5563;52.296;6.806;2023-01-25T00:11:28;103725.59;;;-0.17;82.72
26443;BME280;5563;52.296;6.806;2023-01-25T00:14:03;103717.72;;;-0.19;82.55
26443;BME280;5563;52.296;6.806;2023-01-25T00:16:38;103711.59;;;-0.18;82.76
26443;BME280;5563;52.296;6.806;2023-01-25T00:19:11;103712.50;;;-0.16;82.85
26443;BME280;5563;52.296;6.806;2023-01-25T00:21:44;103709.03;;;-0.15;82.81
26443;BME280;5563;52.296;6.806;2023-01-25T00:24:12;103711.66;;;-0.15;82.78
26443;BME280;5563;52.296;6.806;2023-01-25T00:26:46;103702.00;;;-0.19;82.90
26443;BME280;5563;52.296;6.806;2023-01-25T00:29:13;103696.72;;;-0.22;82.59
26443;BME280;5563;52.296;6.806;2023-01-25T00:34:43;103709.03;;;-0.16;83.22
26443;BME280;5563;52.296;6.806;2023-01-25T00:37:24;103697.59;;;-0.21;83.00
26443;BME280;5563;52.296;6.806;2023-01-25T00:40:00;103702.00;;;-0.19;82.72
26443;BME280;5563;52.296;6.806;2023-01-25T00:42:33;103703.75;;;-0.18;82.93
26443;BME280;5563;52.296;6.806;2023-01-25T00:45:08;103702.00;;;-0.19;83.00
26443;BME280;5563;52.296;6.806;2023-01-25T00:47:42;103700.25;;;-0.18;82.96
26443;BME280;5563;52.296;6.806;2023-01-25T00:50:09;103697.63;;;-0.20;83.20
26443;BME280;5563;52.296;6.806;2023-01-25T00:52:36;103703.75;;;-0.18;83.03
26443;BME280;5563;52.296;6.806;2023-01-25T00:55:09;103700.25;;;-0.20;83.00
26443;BME280;5563;52.296;6.806;2023-01-25T00:57:36;103703.72;;;-0.19;83.21
26443;BME280;5563;52.296;6.806;2023-01-25T01:00:10;103696.75;;;-0.20;83.07
26443;BME280;5563;52.296;6.806;2023-01-25T01:02:36;103691.41;;;-0.28;82.89
26443;BME280;5563;52.296;6.806;2023-01-25T01:05:17;103691.47;;;-0.23;82.90
26443;BME280;5563;52.296;6.806;2023-01-25T01:07:44;103686.16;;;-0.29;82.93
26443;BME280;5563;52.296;6.806;2023-01-25T01:10:17;103681.78;;;-0.30;82.79
26443;BME280;5563;52.296;6.806;2023-01-25T01:12:44;103683.53;;;-0.29;82.95
26443;BME280;5563;52.296;6.806;2023-01-25T01:15:17;103684.41;;;-0.30;83.17
26443;BME280;5563;52.296;6.806;2023-01-25T01:17:44;103680.03;;;-0.30;83.02
26443;BME280;5563;52.296;6.806;2023-01-25T01:20:20;103674.81;;;-0.30;83.32
26443;BME280;5563;52.296;6.806;2023-01-25T01:22:47;103677.44;;;-0.28;83.23
26443;BME280;5563;52.296;6.806;2023-01-25T01:25:20;103686.19;;;-0.28;83.20
26443;BME280;5563;52.296;6.806;2023-01-25T01:27:53;103684.44;;;-0.29;83.10
26443;BME280;5563;52.296;6.806;2023-01-25T01:30:20;103678.28;;;-0.31;83.16
26443;BME280;5563;52.296;6.806;2023-01-25T01:32:53;103687.00;;;-0.32;83.26
26443;BME280;5563;52.296;6.806;2023-01-25T01:35:28;103687.00;;;-0.32;83.18
26443;BME280;5563;52.296;6.806;2023-01-25T01:37:55;103675.63;;;-0.34;83.07
26443;BME280;5563;52.296;6.806;2023-01-25T01:40:22;103679.13;;;-0.33;83.17
26443;BME280;5563;52.296;6.806;2023-01-25T01:43:01;103679.13;;;-0.36;83.04
26443;BME280;5563;52.296;6.806;2023-01-25T01:48:28;103686.09;;;-0.37;83.44
26443;BME280;5563;52.296;6.806;2023-01-25T01:51:01;103672.97;;;-0.38;83.25
26443;BME280;5563;52.296;6.806;2023-01-25T01:53:36;103677.34;;;-0.37;83.24
26443;BME280;5563;52.296;6.806;2023-01-25T01:56:07;103679.97;;;-0.37;83.20
26443;BME280;5563;52.296;6.806;2023-01-25T01:58:43;103662.50;;;-0.40;83.00
26443;BME280;5563;52.296;6.806;2023-01-25T02:01:11;103666.84;;;-0.39;83.17
26443;BME280;5563;52.296;6.806;2023-01-25T02:04:00;103672.97;;;-0.40;83.15
26443;BME280;5563;52.296;6.806;2023-01-25T02:06:47;103675.59;;;-0.38;83.07
26443;BME280;5563;52.296;6.806;2023-01-25T02:09:25;103669.47;;;-0.39;83.09
26443;BME280;5563;52.296;6.806;2023-01-25T02:12:01;103666.81;;;-0.45;83.06
26443;BME280;5563;52.296;6.806;2023-01-25T02:14:36;103671.19;;;-0.44;83.32
26443;BME280;5563;52.296;6.806;2023-01-25T02:17:05;103657.16;;;-0.47;83.46
26443;BME280;5563;52.296;6.806;2023-01-25T02:19:49;103665.03;;;-0.44;83.38
26443;BME280;5563;52.296;6.806;2023-01-25T02:22:22;103664.19;;;-0.43;83.43
26443;BME280;5563;52.296;6.806;2023-01-25T02:25:10;103658.09;;;-0.42;83.41
26443;BME280;5563;52.296;6.806;2023-01-25T02:27:51;103651.03;;;-0.49;83.16
26443;BME280;5563;52.296;6.806;2023-01-25T02:30:25;103656.31;;;-0.46;83.29
26443;BME280;5563;52.296;6.806;2023-01-25T02:32:52;103658.06;;;-0.47;83.25
26443;BME280;5563;52.296;6.806;2023-01-25T02:35:34;103654.53;;;-0.47;83.33
26443;BME280;5563;52.296;6.806;2023-01-25T02:38:11;103657.19;;;-0.46;83.52
26443;BME280;5563;52.296;6.806;2023-01-25T02:40:52;103645.84;;;-0.43;83.57
26443;BME280;5563;52.296;6.806;2023-01-25T02:43:29;103632.72;;;-0.46;83.25
26443;BME280;5563;52.296;6.806;2023-01-25T02:48:50;103631.84;;;-0.48;83.15
26443;BME280;5563;52.296;6.806;2023-01-25T02:51:18;103630.94;;;-0.50;83.31
26443;BME280;5563;52.296;6.806;2023-01-25T02:53:59;103632.69;;;-0.48;83.50
26443;BME280;5563;52.296;6.806;2023-01-25T02:56:28;103627.44;;;-0.49;83.25
26443;BME280;5563;52.296;6.806;2023-01-25T02:59:01;103628.31;;;-0.52;83.62
26443;BME280;5563;52.296;6.806;2023-01-25T03:01:32;103635.28;;;-0.54;83.28
26443;BME280;5563;52.296;6.806;2023-01-25T03:04:12;103632.66;;;-0.54;83.38
26443;BME280;5563;52.296;6.806;2023-01-25T03:06:39;103629.13;;;-0.57;83.20
26443;BME280;5563;52.296;6.806;2023-01-25T03:09:12;103627.41;;;-0.54;83.45
26443;BME280;5563;52.296;6.806;2023-01-25T03:11:39;103620.41;;;-0.55;83.36
26443;BME280;5563;52.296;6.806;2023-01-25T03:14:12;103610.81;;;-0.54;83.24
26443;BME280;5563;52.296;6.806;2023-01-25T03:16:45;103609.91;;;-0.56;83.50
26443;BME280;5563;52.296;6.806;2023-01-25T03:19:18;103601.19;;;-0.57;83.29
26443;BME280;5563;52.296;6.806;2023-01-25T03:21:45;103602.88;;;-0.62;83.34
26443;BME280;5563;52.296;6.806;2023-01-25T03:24:18;103609.88;;;-0.62;83.08
26443;BME280;5563;52.296;6.806;2023-01-25T03:26:51;103610.72;;;-0.63;83.19
26443;BME280;5563;52.296;6.806;2023-01-25T03:29:36;103608.09;;;-0.65;82.99
26443;BME280;5563;52.296;6.806;2023-01-25T03:32:17;103601.97;;;-0.67;83.33
26443;BME280;5563;52.296;6.806;2023-01-25T03:34:50;103584.44;;;-0.72;83.39
26443;BME280;5563;52.296;6.806;2023-01-25T03:37:23;103592.38;;;-0.66;83.42
26443;BME280;5563;52.296;6.806;2023-01-25T03:39:56;103585.41;;;-0.66;83.45
26443;BME280;5563;52.296;6.806;2023-01-25T03:42:29;103582.78;;;-0.66;83.33
26443;BME280;5563;52.296;6.806;2023-01-25T03:44:56;103581.00;;;-0.68;83.29
26443;BME280;5563;52.296;6.806;2023-01-25T03:47:29;103581.00;;;-0.67;83.13
26443;BME280;5563;52.296;6.806;2023-01-25T03:49:56;103578.38;;;-0.67;83.37
26443;BME280;5563;52.296;6.806;2023-01-25T03:52:29;103574.84;;;-0.70;83.59
26443;BME280;5563;52.296;6.806;2023-01-25T03:55:04;103572.25;;;-0.67;83.54
26443;BME280;5563;52.296;6.806;2023-01-25T03:57:37;103573.16;;;-0.67;83.48
26443;BME280;5563;52.296;6.806;2023-01-25T04:00:04;103571.41;;;-0.65;83.69
26443;BME280;5563;52.296;6.806;2023-01-25T04:02:38;103563.56;;;-0.65;83.75
26443;BME280;5563;52.296;6.806;2023-01-25T04:25:32;103560.84;;;-0.77;83.52
26443;BME280;5563;52.296;6.806;2023-01-25T10:42:24;103366.59;;;-1.34;84.50
26443;BME280;5563;52.296;6.806;2023-01-25T14:03:16;103009.84;;;-1.53;85.69
26443;BME280;5563;52.296;6.806;2023-01-25T14:27:59;102993.28;;;-1.55;85.70
26443;BME280;5563;52.296;6.806;2023-01-25T16:45:10;102927.91;;;-1.32;81.81
26443;BME280;5563;52.296;6.806;2023-01-25T16:48:18;102912.19;;;-1.52;83.13
26443;BME280;5563;52.296;6.806;2023-01-25T16:53:21;102914.78;;;-1.65;83.92
26443;BME280;5563;52.296;6.806;2023-01-25T16:56:02;102918.25;;;-1.69;84.33
26443;BME280;5563;52.296;6.806;2023-01-25T16:58:28;102920.84;;;-1.74;84.76
26443;BME280;5563;52.296;6.806;2023-01-25T17:01:07;102909.53;;;-1.76;84.88
26443;BME280;5563;52.296;6.806;2023-01-25T17:03:34;102922.63;;;-1.74;85.23
26443;BME280;5563;52.296;6.806;2023-01-25T17:06:15;102917.38;;;-1.73;85.96
26443;BME280;5563;52.296;6.806;2023-01-25T17:08:52;102912.16;;;-1.76;85.83
26443;BME280;5563;52.296;6.806;2023-01-25T17:11:20;102906.91;;;-1.79;85.93
26443;BME280;5563;52.296;6.806;2023-01-25T17:13:57;102907.78;;;-1.81;85.71
26443;BME280;5563;52.296;6.806;2023-01-25T17:16:26;102900.78;;;-1.82;85.89
26443;BME280;5563;52.296;6.806;2023-01-25T17:18:56;102899.06;;;-1.86;85.98
26443;BME280;5563;52.296;6.806;2023-01-25T17:21:31;102896.44;;;-1.83;85.78
26443;BME280;5563;52.296;6.806;2023-01-25T17:23:59;102894.69;;;-1.86;86.23
26443;BME280;5563;52.296;6.806;2023-01-25T17:26:33;102883.34;;;-1.91;86.23
26443;BME280;5563;52.296;6.806;2023-01-25T17:29:00;102879.88;;;-1.85;86.53
26443;BME280;5563;52.296;6.806;2023-01-25T17:31:35;102880.72;;;-1.88;86.33
26443;BME280;5563;52.296;6.806;2023-01-25T17:34:06;102872.03;;;-1.88;86.28
26443;BME280;5563;52.296;6.806;2023-01-25T17:36:33;102870.28;;;-1.88;86.39
26443;BME280;5563;52.296;6.806;2023-01-25T17:39:07;102872.91;;;-1.85;86.23
26443;BME280;5563;52.296;6.806;2023-01-25T17:41:44;102864.19;;;-1.88;86.43
26443;BME280;5563;52.296;6.806;2023-01-25T17:44:12;102869.41;;;-1.87;86.30
26443;BME280;5563;52.296;6.806;2023-01-25T17:46:46;102856.34;;;-1.87;85.98
26443;BME280;5563;52.296;6.806;2023-01-25T17:49:14;102844.13;;;-1.88;86.39
26443;BME280;5563;52.296;6.806;2023-01-25T17:51:51;102838.06;;;-1.90;86.12
26443;BME280;5563;52.296;6.806;2023-01-25T17:54:30;102834.56;;;-1.89;86.19
26443;BME280;5563;52.296;6.806;2023-01-25T17:56:57;102811.91;;;-1.96;86.08
26443;BME280;5563;52.296;6.806;2023-01-25T17:59:31;102811.03;;;-1.89;86.23
26443;BME280;5563;52.296;6.806;2023-01-25T18:02:04;102811.03;;;-1.89;86.13
26443;BME280;5563;52.296;6.806;2023-01-25T18:04:32;102808.41;;;-1.87;86.37
26443;BME280;5563;52.296;6.806;2023-01-25T18:07:06;102807.56;;;-1.86;86.33
26443;BME280;5563;52.296;6.806;2023-01-25T18:09:32;102779.69;;;-1.93;86.26
26443;BME280;5563;52.296;6.806;2023-01-25T18:12:01;102779.66;;;-1.92;86.35
26443;BME280;5563;52.296;6.806;2023-01-25T18:14:34;102779.66;;;-1.90;86.46
26443;BME280;5563;52.296;6.806;2023-01-25T18:17:00;102771.84;;;-1.93;86.65
26443;BME280;5563;52.296;6.806;2023-01-25T18:19:35;102771.84;;;-1.93;86.46
26443;BME280;5563;52.296;6.806;2023-01-25T18:22:02;102760.50;;;-1.94;86.70
26443;BME280;5563;52.296;6.806;2023-01-25T18:24:36;102749.16;;;-1.96;86.92
26443;BME280;5563;52.296;6.806;2023-01-25T18:27:06;102737.84;;;-1.96;86.95
26443;BME280;5563;52.296;6.806;2023-01-25T18:32:28;102740.44;;;-1.98;87.13
26443;BME280;5563;52.296;6.806;2023-01-25T18:34:55;102741.34;;;-1.99;86.88
26443;BME280;5563;52.296;6.806;2023-01-25T18:37:29;102739.56;;;-2.00;86.85
26443;BME280;5563;52.296;6.806;2023-01-25T18:40:01;102736.06;;;-2.00;86.88
26443;BME280;5563;52.296;6.806;2023-01-25T18:42:34;102739.56;;;-2.01;87.15
26443;BME280;5563;52.296;6.806;2023-01-25T18:45:00;102719.53;;;-2.05;86.99
26443;BME280;5563;52.296;6.806;2023-01-25T18:47:34;102717.78;;;-2.05;86.89
26443;BME280;5563;52.296;6.806;2023-01-25T18:50:01;102712.59;;;-2.08;86.88
26443;BME280;5563;52.296;6.806;2023-01-25T18:52:35;102713.47;;;-2.06;87.07
26443;BME280;5563;52.296;6.806;2023-01-25T18:55:08;102714.28;;;-2.04;86.93
26443;BME280;5563;52.296;6.806;2023-01-25T18:57:41;102716.94;;;-2.02;86.90
26443;BME280;5563;52.296;6.806;2023-01-25T19:00:21;102723.91;;;-2.01;87.02
26443;BME280;5563;52.296;6.806;2023-01-25T19:02:54;102720.41;;;-2.00;87.07
26443;BME280;5563;52.296;6.806;2023-01-25T19:05:20;102704.72;;;-2.06;87.03
26443;BME280;5563;52.296;6.806;2023-01-25T19:07:54;102725.66;;;-1.97;87.25
26443;BME280;5563;52.296;6.806;2023-01-25T19:10:27;102714.31;;;-1.99;87.16
26443;BME280;5563;52.296;6.806;2023-01-25T19:13:00;102703.00;;;-1.97;87.39
26443;BME280;5563;52.296;6.806;2023-01-25T19:15:33;102701.25;;;-1.98;87.50
26443;BME280;5563;52.296;6.806;2023-01-25T19:17:59;102698.63;;;-1.96;87.09
26443;BME280;5563;52.296;6.806;2023-01-25T19:20:33;102695.16;;;-1.97;87.47
26443;BME280;5563;52.296;6.806;2023-01-25T19:23:06;102685.56;;;-1.96;87.20
26443;BME280;5563;52.296;6.806;2023-01-25T19:25:40;102686.44;;;-1.96;87.50
26443;BME280;5563;52.296;6.806;2023-01-25T19:28:06;102689.03;;;-1.93;87.43
26443;BME280;5563;52.296;6.806;2023-01-25T19:30:40;102694.28;;;-1.94;87.68
26443;BME280;5563;52.296;6.806;2023-01-25T19:33:06;102693.41;;;-1.93;87.59
26443;BME280;5563;52.296;6.806;2023-01-25T19:35:40;102700.38;;;-1.92;87.45
26443;BME280;5563;52.296;6.806;2023-01-25T19:38:13;102702.09;;;-1.91;87.52
26443;BME280;5563;52.296;6.806;2023-01-25T19:40:46;102686.44;;;-1.94;87.21
26443;BME280;5563;52.296;6.806;2023-01-25T19:43:19;102691.66;;;-1.91;87.38
26443;BME280;5563;52.296;6.806;2023-01-25T19:45:45;102690.78;;;-1.89;87.45
26443;BME280;5563;52.296;6.806;2023-01-25T19:48:19;102696.03;;;-1.90;87.29
26443;BME280;5563;52.296;6.806;2023-01-25T19:50:45;102697.78;;;-1.97;87.46
26443;BME280;5563;52.296;6.806;2023-01-25T19:53:25;102698.63;;;-1.99;87.82
26443;BME280;5563;52.296;6.806;2023-01-25T19:56:07;102692.53;;;-2.00;87.75
26443;BME280;5563;52.296;6.806;2023-01-25T19:58:46;102675.97;;;-2.00;87.85
26443;BME280;5563;52.296;6.806;2023-01-25T20:01:18;102674.25;;;-2.01;87.96
26443;BME280;5563;52.296;6.806;2023-01-25T20:03:55;102681.19;;;-2.00;88.13
26443;BME280;5563;52.296;6.806;2023-01-25T20:06:33;102679.47;;;-2.03;88.15
26443;BME280;5563;52.296;6.806;2023-01-25T20:09:08;102681.22;;;-2.05;88.04
26443;BME280;5563;52.296;6.806;2023-01-25T20:11:36;102686.44;;;-2.05;88.25
26443;BME280;5563;52.296;6.806;2023-01-25T20:14:12;102664.66;;;-2.10;88.09
26443;BME280;5563;52.296;6.806;2023-01-25T20:16:46;102662.03;;;-2.04;88.17
26443;BME280;5563;52.296;6.806;2023-01-25T20:19:24;102661.19;;;-2.03;88.44
26443;BME280;5563;52.296;6.806;2023-01-25T20:21:51;102649.84;;;-2.03;88.79
26443;BME280;5563;52.296;6.806;2023-01-25T20:24:24;102645.50;;;-2.01;88.67
26443;BME280;5563;52.296;6.806;2023-01-25T20:26:58;102630.69;;;-2.04;89.03
26443;BME280;5563;52.296;6.806;2023-01-25T20:29:31;102631.56;;;-2.06;89.36
26443;BME280;5563;52.296;6.806;2023-01-25T20:31:57;102628.06;;;-2.05;89.13
26443;BME280;5563;52.296;6.806;2023-01-25T20:34:31;102618.50;;;-2.06;89.50
26443;BME280;5563;52.296;6.806;2023-01-25T20:37:04;102620.25;;;-2.11;89.54
26443;BME280;5563;52.296;6.806;2023-01-25T20:39:30;102627.19;;;-2.07;89.46
26443;BME280;5563;52.296;6.806;2023-01-25T20:42:04;102623.75;;;-2.09;89.74
26443;BME280;5563;52.296;6.806;2023-01-25T20:44:30;102620.25;;;-2.11;89.61
26443;BME280;5563;52.296;6.806;2023-01-25T20:47:04;102620.25;;;-2.17;89.71
26443;BME280;5563;52.296;6.806;2023-01-25T20:49:31;102622.88;;;-2.19;89.73
26443;BME280;5563;52.296;6.806;2023-01-25T20:51:59;102614.16;;;-2.20;89.93
26443;BME280;5563;52.296;6.806;2023-01-25T20:54:33;102607.19;;;-2.17;90.04
26443;BME280;5563;52.296;6.806;2023-01-25T20:57:09;102604.56;;;-2.17;90.19
26443;BME280;5563;52.296;6.806;2023-01-25T20:59:42;102603.72;;;-2.16;90.05
26443;BME280;5563;52.296;6.806;2023-01-25T21:02:15;102603.72;;;-2.16;90.33
26443;BME280;5563;52.296;6.806;2023-01-25T21:04:48;102603.69;;;-2.18;90.32
26443;BME280;5563;52.296;6.806;2023-01-25T21:07:14;102600.22;;;-2.18;90.50
26443;BME280;5563;52.296;6.806;2023-01-25T21:09:48;102604.56;;;-2.16;90.44
26443;BME280;5563;52.296;6.806;2023-01-25T21:12:14;102611.56;;;-2.16;90.45
26443;BME280;5563;52.296;6.806;2023-01-25T21:14:48;102590.63;;;-2.20;90.74
26443;BME280;5563;52.296;6.806;2023-01-25T21:17:15;102575.84;;;-2.19;90.69
26443;BME280;5563;52.296;6.806;2023-01-25T21:19:48;102575.84;;;-2.21;90.63
26443;BME280;5563;52.296;6.806;2023-01-25T21:22:14;102594.97;;;-2.12;90.74
26443;BME280;5563;52.296;6.806;2023-01-25T21:24:48;102592.38;;;-2.15;90.46
26443;BME280;5563;52.296;6.806;2023-01-25T21:27:21;102593.25;;;-2.15;90.49
26443;BME280;5563;52.296;6.806;2023-01-25T21:29:55;102585.41;;;-2.18;90.43
26443;BME280;5563;52.296;6.806;2023-01-25T21:32:22;102580.19;;;-2.16;90.76
26443;BME280;5563;52.296;6.806;2023-01-25T21:34:56;102568.00;;;-2.21;91.12
26443;BME280;5563;52.296;6.806;2023-01-25T21:37:29;102558.44;;;-2.32;90.97
26443;BME280;5563;52.296;6.806;2023-01-25T21:39:55;102560.16;;;-2.27;91.16
26443;BME280;5563;52.296;6.806;2023-01-25T21:42:29;102569.75;;;-2.23;91.19
26443;BME280;5563;52.296;6.806;2023-01-25T21:44:57;102560.16;;;-2.34;91.04
26443;BME280;5563;52.296;6.806;2023-01-25T21:47:50;102581.09;;;-2.24;91.01
26443;BME280;5563;52.296;6.806;2023-01-25T21:50:16;102577.59;;;-2.26;90.95
26443;BME280;5563;52.296;6.806;2023-01-25T21:53:15;102580.19;;;-2.24;91.35
26443;BME280;5563;52.296;6.806;2023-01-25T21:55:48;102576.72;;;-2.25;91.02
26443;BME280;5563;52.296;6.806;2023-01-25T21:58:27;102580.19;;;-2.20;91.09
26443;BME280;5563;52.296;6.806;2023-01-25T22:00:59;102577.56;;;-2.21;91.10
26443;BME280;5563;52.296;6.806;2023-01-25T22:03:38;102573.22;;;-2.21;91.14
26443;BME280;5563;52.296;6.806;2023-01-25T22:06:05;102580.19;;;-2.16;91.08
26443;BME280;5563;52.296;6.806;2023-01-25T22:08:39;102574.09;;;-2.15;91.29
26443;BME280;5563;52.296;6.806;2023-01-25T22:11:05;102565.41;;;-2.22;91.08
26443;BME280;5563;52.296;6.806;2023-01-25T22:13:40;102554.94;;;-2.22;91.42
26443;BME280;5563;52.296;6.806;2023-01-25T22:16:13;102545.38;;;-2.29;91.14
26443;BME280;5563;52.296;6.806;2023-01-25T22:18:41;102558.44;;;-2.18;91.27
26443;BME280;5563;52.296;6.806;2023-01-25T22:21:20;102563.66;;;-2.18;91.29
26443;BME280;5563;52.296;6.806;2023-01-25T22:23:47;102565.38;;;-2.17;91.26
26443;BME280;5563;52.296;6.806;2023-01-25T22:26:22;102568.00;;;-2.16;91.14
26443;BME280;5563;52.296;6.806;2023-01-25T22:28:57;102561.91;;;-2.15;91.25
26443;BME280;5563;52.296;6.806;2023-01-25T22:31:31;102570.59;;;-2.14;91.21
26443;BME280;5563;52.296;6.806;2023-01-25T22:33:58;102554.06;;;-2.13;91.24
26443;BME280;5563;52.296;6.806;2023-01-25T22:36:32;102557.56;;;-2.13;91.64
26443;BME280;5563;52.296;6.806;2023-01-25T22:38:59;102559.28;;;-2.13;91.48
26443;BME280;5563;52.296;6.806;2023-01-25T22:41:31;102538.41;;;-2.23;91.50
26443;BME280;5563;52.296;6.806;2023-01-25T22:44:05;102541.84;;;-2.16;91.58
26443;BME280;5563;52.296;6.806;2023-01-25T22:46:38;102522.72;;;-2.23;91.78
26443;BME280;5563;52.296;6.806;2023-01-25T22:49:11;102534.03;;;-2.21;91.52
26443;BME280;5563;52.296;6.806;2023-01-25T22:51:44;102543.63;;;-2.15;91.63
26443;BME280;5563;52.296;6.806;2023-01-25T22:54:17;102529.66;;;-2.14;91.69
26443;BME280;5563;52.296;6.806;2023-01-25T22:56:57;102528.78;;;-2.14;91.73
26443;BME280;5563;52.296;6.806;2023-01-25T22:59:31;102529.66;;;-2.14;91.92
26443;BME280;5563;52.296;6.806;2023-01-25T23:01:57;102522.72;;;-2.15;91.52
26443;BME280;5563;52.296;6.806;2023-01-25T23:04:31;102527.94;;;-2.13;91.86
26443;BME280;5563;52.296;6.806;2023-01-25T23:07:04;102535.75;;;-2.12;91.65
26443;BME280;5563;52.296;6.806;2023-01-25T23:09:45;102530.53;;;-2.10;92.02
26443;BME280;5563;52.296;6.806;2023-01-25T23:12:13;102527.91;;;-2.10;91.87
26443;BME280;5563;52.296;6.806;2023-01-25T23:14:47;102525.34;;;-2.15;91.82
26443;BME280;5563;52.296;6.806;2023-01-25T23:17:21;102514.88;;;-2.15;91.73
26443;BME280;5563;52.296;6.806;2023-01-25T23:20:14;102508.78;;;-2.14;92.23
26443;BME280;5563;52.296;6.806;2023-01-25T23:22:40;102511.38;;;-2.12;91.76
26443;BME280;5563;52.296;6.806;2023-01-25T23:25:14;102514.84;;;-2.10;91.94
26443;BME280;5563;52.296;6.806;2023-01-25T23:27:41;102507.91;;;-2.13;92.28
26443;BME280;5563;52.296;6.806;2023-01-25T23:30:14;102506.16;;;-2.12;92.20
26443;BME280;5563;52.296;6.806;2023-01-25T23:32:41;102501.81;;;-2.12;92.39
26443;BME280;5563;52.296;6.806;2023-01-25T23:35:18;102495.72;;;-2.17;92.49
26443;BME280;5563;52.296;6.806;2023-01-25T23:37:52;102500.91;;;-2.12;92.29
26443;BME280;5563;52.296;6.806;2023-01-25T23:40:25;102493.09;;;-2.14;92.31
26443;BME280;5563;52.296;6.806;2023-01-25T23:42:58;102499.19;;;-2.10;92.32
26443;BME280;5563;52.296;6.806;2023-01-25T23:45:24;102502.69;;;-2.11;92.37
26443;BME280;5563;52.296;6.806;2023-01-25T23:47:58;102497.44;;;-2.11;92.51
26443;BME280;5563;52.296;6.806;2023-01-25T23:50:24;102492.22;;;-2.11;92.25
26443;BME280;5563;52.296;6.806;2023-01-25T23:53:04;102487.84;;;-2.11;92.49
26443;BME280;5563;52.296;6.806;2023-01-25T23:56:01;102483.50;;;-2.10;92.68
26443;BME280;5563;52.296;6.806;2023-01-25T23:58:36;102454.84;;;-2.27;92.48
